Chadstone Weather > Observations for 15/09/20

Select Day:



Observations
Time Temp Hum DP Wind Gust Dir Rain >9am Press
C % C kph kph mm hPa
00:00 10.6 86 8.4 0.0 0.0 N 0.9 1036.5
00:10 10.6 86 8.4 0.0 0.0 N 0.9 1036.5
00:20 10.6 86 8.4 0.0 0.0 N 0.9 1036.5
00:30 10.6 86 8.4 0.0 0.0 N 0.9 1036.6
00:40 10.6 86 8.4 0.0 0.0 N 0.9 1036.6
00:50 10.6 86 8.4 0.0 0.0 N 0.9 1036.9
01:00 9.3 90 7.7 0.0 0.0 N 0.9 1036.9
01:10 9.3 91 7.9 0.0 0.0 N 0.9 1036.9
01:20 9.1 91 7.7 0.0 0.0 N 0.9 1036.8
01:30 9.0 91 7.6 0.0 0.0 N 0.9 1036.9
01:40 8.8 92 7.6 0.0 0.0 N 0.9 1036.7
01:50 8.7 91 7.3 0.0 0.0 N 0.9 1036.4
02:00 8.6 91 7.2 0.0 0.0 N 0.9 1036.3
02:10 8.5 91 7.1 0.0 0.0 N 0.9 1036.1
02:20 8.5 91 7.1 0.0 0.0 N 0.9 1036.0
02:30 8.3 91 6.9 0.0 1.1 NW 0.9 1035.9
02:40 8.3 92 7.1 0.0 1.1 NW 0.9 1035.8
02:50 8.2 92 7.0 0.0 0.0 N 0.9 1035.6
03:00 8.2 92 7.0 0.0 0.0 N 0.9 1035.5
03:10 8.3 92 7.1 0.0 1.1 NW 0.9 1035.4
03:20 8.3 92 7.1 0.0 0.0 N 0.9 1035.4
03:30 8.3 92 7.1 0.0 2.5 NW 0.9 1035.3
03:40 8.3 92 7.1 0.3 3.6 NW 0.9 1035.4
03:50 8.3 92 7.1 0.8 3.6 NW 0.9 1035.4
04:00 8.2 92 7.0 0.0 2.5 NW 0.9 1035.4
04:10 8.2 92 7.0 0.7 5.0 NW 0.9 1035.4
04:20 8.2 92 7.0 0.4 5.0 NW 0.9 1035.5
04:30 8.1 92 6.9 0.5 5.0 NW 0.9 1035.2
04:40 8.1 92 6.9 0.2 2.5 NW 0.9 1035.5
04:50 8.1 92 6.9 1.1 2.5 NW 0.9 1035.4
05:00 8.1 92 6.9 1.1 2.5 NW 0.9 1035.5
05:10 8.2 93 7.1 2.1 3.6 NW 0.9 1035.5
05:20 8.2 93 7.1 2.5 3.6 NW 0.9 1035.7
05:30 8.2 93 7.1 2.5 3.6 NW 0.9 1035.8
05:40 8.0 92 6.8 0.0 0.0 N 0.9 1035.8
05:50 7.8 93 6.7 0.0 0.0 N 0.9 1035.9
06:00 7.7 93 6.6 0.0 0.0 N 0.9 1035.9
06:10 7.7 93 6.6 0.0 0.0 N 0.9 1036.2
06:20 7.5 93 6.4 0.0 1.1 NW 0.9 1036.2
06:30 7.4 93 6.3 0.0 0.0 N 0.9 1036.2
06:40 7.4 93 6.3 0.0 1.1 NW 0.9 1036.3
06:50 7.5 93 6.4 0.0 0.0 N 0.9 1036.3
07:00 7.6 93 6.5 0.0 0.0 N 0.9 1036.5
07:10 7.7 93 6.6 0.0 0.0 N 0.9 1036.8
07:20 7.7 93 6.6 0.0 0.0 N 0.9 1036.9
07:30 7.7 93 6.6 0.0 0.0 N 0.9 1036.8
07:40 7.7 93 6.6 0.0 0.0 N 0.9 1036.7
07:50 7.7 93 6.6 0.0 0.0 N 0.9 1036.8
08:00 7.7 93 6.6 0.0 0.0 N 0.9 1036.8
08:10 7.7 93 6.6 0.0 0.0 N 0.9 1036.7
08:20 7.7 93 6.6 0.0 0.0 N 0.9 1036.9
08:30 10.8 93 9.7 2.5 5.0 NW 0.9 1036.8
08:40 11.1 92 9.9 2.8 7.2 WNW 0.9 1036.8
08:50 11.4 90 9.8 4.1 9.7 WSW 0.9 1036.9
09:00 11.7 89 10.0 4.8 13.3 W 0.0 1036.8
09:10 12.2 85 9.8 4.5 11.2 WSW 0.0 1036.8
09:20 12.4 82 9.4 5.2 11.2 WSW 0.0 1036.8
09:30 12.7 78 9.0 6.5 12.2 W 0.0 1036.8
09:40 13.0 76 8.9 5.3 14.8 W 0.0 1036.7
09:50 13.2 73 8.5 5.9 12.2 W 0.0 1036.5
10:00 13.4 71 8.3 5.9 13.3 WNW 0.0 1036.5
10:10 13.6 71 8.4 6.0 12.2 W 0.0 1036.4
10:20 13.7 70 8.3 2.1 8.6 WNW 0.0 1036.3
10:30 13.8 69 8.2 3.4 11.2 SW 0.0 1036.2
10:40 13.7 68 7.9 3.8 14.8 W 0.0 1036.1
10:50 14.1 67 8.1 5.9 14.8 W 0.0 1035.9
11:00 14.4 66 8.1 3.9 11.2 SW 0.0 1035.8
11:10 14.7 66 8.4 3.9 13.3 W 0.0 1035.6
11:20 14.9 65 8.4 3.4 11.2 WSW 0.0 1035.5
11:30 15.2 64 8.4 3.3 11.2 SW 0.0 1035.5
11:40 15.3 63 8.3 2.6 8.6 SSW 0.0 1035.3
11:50 15.3 63 8.3 4.7 12.2 S 0.0 1035.0
12:00 15.8 63 8.8 4.4 12.2 W 0.0 1034.9
12:10 16.0 59 8.0 4.1 12.2 WSW 0.0 1034.7
12:20 16.2 59 8.2 5.1 12.2 W 0.0 1034.6
12:30 16.4 58 8.1 3.4 8.6 SW 0.0 1034.5
12:40 16.5 59 8.5 3.1 8.6 WSW 0.0 1034.6
12:50 16.5 57 8.0 3.8 8.6 SW 0.0 1034.6
13:00 16.7 58 8.4 3.7 9.7 SW 0.0 1034.3
13:10 16.8 57 8.2 2.2 8.6 W 0.0 1034.1
13:20 16.9 57 8.3 3.9 11.2 SSW 0.0 1033.8
13:30 16.8 56 8.0 3.0 8.6 SW 0.0 1033.7
13:40 16.9 57 8.3 3.7 12.2 SW 0.0 1033.8
13:50 16.8 57 8.2 4.1 11.2 N 0.0 1033.5
14:00 17.1 56 8.3 3.5 12.2 WNW 0.0 1033.2
14:10 16.8 56 8.0 3.1 11.2 SSW 0.0 1033.6
14:20 16.6 57 8.1 1.9 9.7 W 0.0 1033.6
14:30 16.6 57 8.1 4.6 14.8 WNW 0.0 1033.4
14:40 16.4 57 7.9 4.4 13.3 WNW 0.0 1033.2
14:50 16.5 58 8.2 2.2 9.7 SSW 0.0 1033.2
15:00 16.5 58 8.2 4.0 12.2 SSE 0.0 1033.4
15:10 16.3 58 8.0 2.3 6.1 WSW 0.0 1033.3
15:20 16.2 58 7.9 5.4 12.2 SW 0.0 1033.2
15:30 16.3 59 8.3 2.1 9.7 SSW 0.0 1033.0
15:40 16.3 59 8.3 2.6 9.7 S 0.0 1032.6
15:50 16.2 59 8.2 3.3 11.2 S 0.0 1032.5
16:00 16.3 60 8.5 4.8 12.2 SSW 0.0 1032.6
16:10 16.3 60 8.5 3.8 11.2 S 0.0 1032.8
16:20 16.1 61 8.6 2.6 8.6 WSW 0.0 1032.9
16:30 16.3 61 8.8 3.3 12.2 S 0.0 1032.9
16:40 16.1 61 8.6 2.9 11.2 SSW 0.0 1033.0
16:50 16.2 62 8.9 2.3 9.7 SW 0.0 1033.2
17:00 16.0 62 8.7 1.6 8.6 NW 0.0 1033.0
17:10 16.0 62 8.7 2.6 9.7 SSW 0.0 1033.0
17:20 15.8 63 8.8 1.8 6.1 S 0.0 1033.0
17:30 15.5 64 8.7 4.7 14.8 S 0.0 1033.1
17:40 15.4 65 8.9 4.0 14.8 S 0.0 1033.1
17:50 15.3 65 8.8 2.7 8.6 S 0.0 1033.1
18:00 15.1 66 8.8 1.6 7.2 SSE 0.0 1033.1
18:10 14.9 67 8.8 2.4 7.2 SE 0.0 1033.0
18:20 14.6 68 8.8 1.0 6.1 SE 0.0 1032.9
18:30 14.3 69 8.7 1.0 3.6 SE 0.0 1032.9
18:40 14.0 70 8.6 1.2 3.6 SE 0.0 1032.8
18:50 13.7 72 8.7 0.1 2.5 SE 0.0 1032.7
19:00 13.4 73 8.7 0.2 2.5 SE 0.0 1032.7
19:10 13.1 74 8.6 0.3 2.5 SE 0.0 1032.6
19:20 12.9 74 8.4 0.0 0.0 N 0.0 1032.6
19:30 12.7 75 8.4 0.0 0.0 N 0.0 1032.5
19:40 12.5 75 8.2 0.0 0.0 N 0.0 1032.5
19:50 12.3 76 8.2 0.0 0.0 N 0.0 1032.6
20:00 12.1 77 8.2 0.0 0.0 N 0.0 1032.5
20:10 12.0 77 8.1 0.0 1.1 SE 0.0 1032.4
20:20 11.8 79 8.3 0.0 0.0 N 0.0 1032.2
20:30 11.7 80 8.4 0.0 1.1 SE 0.0 1032.1
20:40 11.6 81 8.5 0.0 1.1 SE 0.0 1032.0
20:50 11.4 81 8.3 0.0 1.1 SE 0.0 1032.0
21:00 11.3 82 8.3 0.0 0.0 N 0.0 1031.9
21:10 11.2 82 8.2 0.0 0.0 N 0.0 1031.8
21:20 11.1 82 8.1 0.0 0.0 N 0.0 1031.7
21:30 11.0 83 8.2 0.0 0.0 N 0.0 1031.8
21:40 10.8 84 8.2 0.0 0.0 N 0.0 1031.8
21:50 10.7 84 8.1 0.0 0.0 N 0.0 1031.9
22:00 10.6 84 8.0 0.0 0.0 N 0.0 1031.9
22:10 10.5 85 8.1 0.0 0.0 N 0.0 1031.9
22:20 10.4 85 8.0 0.0 0.0 N 0.0 1031.8
22:30 10.3 85 7.9 0.0 0.0 N 0.0 1031.7
22:40 10.2 85 7.8 0.0 0.0 N 0.0 1031.7
22:50 10.1 86 7.9 0.0 0.0 N 0.0 1031.6
23:00 10.0 86 7.8 0.0 0.0 N 0.0 1031.7
23:10 9.8 87 7.7 0.0 0.0 N 0.0 1031.5
23:20 9.7 87 7.6 0.0 0.0 N 0.0 1031.3
23:30 9.6 87 7.5 0.0 0.0 N 0.0 1031.3
23:40 9.5 87 7.4 0.0 0.0 N 0.0 1031.1
23:50 9.4 88 7.5 0.0 0.0 N 0.0 1030.8